Terminal Aerodrome Forecast
Issued by NWS St Louis, MO

Home | Current Version | Previous Version | Text Only | Print | Product List | Glossary On
Versions: 1 2 3 4 5 6 7 8 9 10 11 12 13 14 15 16 17 18 19 20 21 22 23 24 25 26 27 28 29 30 31 32 33
000
FTUS43 KLSX 240500
TAFSTL
TAF
KSTL 240520Z 2406/2512 04010KT P6SM SCT015 BKN250
     FM240800 06009KT P6SM BKN015
     FM241300 09011KT 4SM -SHRA VCTS OVC015CB
     FM241700 11013KT P6SM BKN025
     FM250300 16014KT P6SM BKN020
      TEMPO 2503/2505 3SM TSRA OVC015CB
     FM250600 26010KT P6SM SCT020 BKN250=

USA.gov is the U.S. government's official web portal to all federal, state and local government web resources and services.